Parish, New York
Current Conditions -  °F | °C
As of 7:54 PM on Monday 24 Nov 2014 (Local Time) from KFZY Reporting Station
Clear Clear  
Wind Chill: 61°   Ceiling: Unl
Heat Index: 61°   Visibility: 10mi
Dew Point: 45°   Wind: 21mph
Humidity: 56%   Direction: 230°SW
Pressure: 29.5"   Gusts: 36mph
Location:  43.41°N, 76.13°W
Report Text: KFZY 250054Z AUTO 23018G31KT 10SM CLR 16/07 A2950 RMK AO2 PK WND 24036/0026 RAE21 SLP988 P0000 T01610072
Loading
Personal Weather Stations






























Interactive Weather Map New forecast layout! Learn more

10-Day Weather Forecast

Advertisements
Track Severe Weather on mobile